createdAt,value
2022-08-05T00:02:21.641Z,100621.75
2022-08-05T00:04:48.140Z,100626.09
2022-08-05T00:08:00.495Z,100624.63
2022-08-05T00:10:09.233Z,100641.25
2022-08-05T00:12:35.630Z,100632.56
2022-08-05T00:15:54.872Z,100637.56
2022-08-05T00:18:08.331Z,100636.09
2022-08-05T00:20:34.709Z,100634.63
2022-08-05T00:23:13.009Z,100636.09
2022-08-05T00:25:46.057Z,100634.69
2022-08-05T00:28:12.857Z,100636.84
2022-08-05T00:30:39.221Z,100643.38
2022-08-05T00:33:07.667Z,100669.44
2022-08-05T00:36:16.664Z,100675.31
2022-08-05T00:38:40.649Z,100652.22
2022-08-05T00:41:11.727Z,100653.78
2022-08-05T00:43:47.068Z,100658.72
2022-08-05T00:46:15.932Z,100665.25
2022-08-05T00:48:50.271Z,100662.31
2022-08-05T00:51:51.965Z,100653.63
2022-08-05T00:54:04.360Z,100665.19
2022-08-05T00:56:30.761Z,100672.44
2022-08-05T00:58:57.143Z,100678.94
2022-08-05T01:01:48.257Z,100660.84
2022-08-05T01:04:14.324Z,100656.50
2022-08-05T01:06:46.581Z,100665.19
2022-08-05T01:09:15.293Z,100686.84
2022-08-05T01:11:43.804Z,100690.53
2022-08-05T01:14:28.420Z,100667.38
2022-08-05T01:17:22.602Z,100694.94
2022-08-05T01:20:01.317Z,100698.66
2022-08-05T01:22:37.714Z,100678.28
2022-08-05T01:25:11.818Z,100707.19
2022-08-05T01:27:58.776Z,100689.81
2022-08-05T01:30:34.156Z,100671.69
2022-08-05T01:33:01.363Z,100691.28
2022-08-05T01:35:51.131Z,100680.44
2022-08-05T01:38:27.357Z,100674.69
2022-08-05T01:40:56.989Z,100660.84
2022-08-05T01:43:24.120Z,100662.97
2022-08-05T01:45:56.227Z,100660.00
2022-08-05T01:48:23.255Z,100657.13
2022-08-05T01:50:51.037Z,100660.75
2022-08-05T01:53:17.773Z,100654.94
2022-08-05T01:56:04.544Z,100663.59
2022-08-05T01:58:44.847Z,100665.06
2022-08-05T02:01:21.485Z,100660.00
2022-08-05T02:03:51.617Z,100662.84
2022-08-05T02:06:37.236Z,100669.38
2022-08-05T02:09:04.622Z,100665.06
2022-08-05T02:11:58.401Z,100664.34
2022-08-05T02:14:27.379Z,100666.47
2022-08-05T02:16:54.518Z,100665.03
2022-08-05T02:19:20.998Z,100660.63
2022-08-05T02:22:07.281Z,100651.91
2022-08-05T02:24:36.846Z,100657.72
2022-08-05T02:27:09.831Z,100656.97
2022-08-05T02:29:59.966Z,100662.00
2022-08-05T02:32:29.186Z,100664.84
2022-08-05T02:34:55.709Z,100664.13
2022-08-05T02:37:22.241Z,100651.09
2022-08-05T02:39:51.539Z,100651.09
2022-08-05T02:42:27.696Z,100663.34
2022-08-05T02:44:58.348Z,100662.63
2022-08-05T02:47:25.106Z,100666.97
2022-08-05T02:50:11.831Z,100658.22
2022-08-05T02:52:38.250Z,100656.78
2022-08-05T02:55:10.836Z,100648.09
2022-08-05T02:58:11.718Z,100647.25
2022-08-05T03:00:25.418Z,100647.25
2022-08-05T03:02:53.274Z,100634.88
2022-08-05T03:05:21.853Z,100634.19
2022-08-05T03:08:08.622Z,100632.88
2022-08-05T03:10:35.669Z,100622.69
2022-08-05T03:15:27.301Z,100609.66
2022-08-05T03:17:55.946Z,100605.28
2022-08-05T03:20:24.517Z,100604.53
2022-08-05T03:22:51.075Z,100606.66
2022-08-05T03:26:04.011Z,100613.91
2022-08-05T03:28:04.609Z,100622.66
2022-08-05T03:30:34.237Z,100612.56
2022-08-05T03:33:04.253Z,100629.28
2022-08-05T03:35:33.970Z,100633.56
2022-08-05T03:38:06.999Z,100637.91
2022-08-05T03:40:34.093Z,100634.97
2022-08-05T03:43:58.707Z,100639.41
2022-08-05T03:45:57.151Z,100638.66
2022-08-05T03:48:25.682Z,100627.81
2022-08-05T03:50:53.895Z,100618.28
2022-08-05T03:55:53.094Z,100624.88
2022-08-05T03:56:33.091Z,100638.66
2022-08-05T03:59:01.799Z,100652.31
2022-08-05T04:01:32.242Z,100660.34
2022-08-05T04:04:09.418Z,100657.44
2022-08-05T04:06:36.799Z,100663.84
2022-08-05T04:09:03.257Z,100667.50
2022-08-05T04:11:50.530Z,100671.81
2022-08-05T04:14:18.267Z,100668.97
2022-08-05T04:16:44.719Z,100666.72
2022-08-05T04:19:11.730Z,100664.59
2022-08-05T04:22:09.351Z,100654.41
2022-08-05T04:24:25.625Z,100651.94
2022-08-05T04:26:54.143Z,100638.97
2022-08-05T04:29:20.768Z,100638.72
2022-08-05T04:31:48.257Z,100633.00
2022-08-05T04:34:31.830Z,100634.84
2022-08-05T04:37:00.777Z,100645.59
2022-08-05T04:39:27.531Z,100645.78
2022-08-05T04:41:54.221Z,100647.72
2022-08-05T04:44:29.270Z,100647.78
2022-08-05T04:46:57.186Z,100642.53
2022-08-05T04:50:01.936Z,100669.25
2022-08-05T04:52:11.258Z,100658.81
2022-08-05T04:54:38.054Z,100671.97
2022-08-05T04:57:04.422Z,100670.94
2022-08-05T04:59:39.118Z,100673.34
2022-08-05T05:02:36.818Z,100669.69
2022-08-05T05:04:53.334Z,100692.84
2022-08-05T05:07:29.529Z,100706.91
2022-08-05T05:09:58.890Z,100723.06
2022-08-05T05:12:29.110Z,100742.09
2022-08-05T05:14:55.491Z,100752.44
2022-08-05T05:17:24.663Z,100753.28
2022-08-05T05:20:08.545Z,100750.13
2022-08-05T05:22:35.016Z,100751.56
2022-08-05T05:25:16.749Z,100749.53
2022-08-05T05:27:48.805Z,100741.34
2022-08-05T05:30:29.263Z,100743.81
2022-08-05T05:33:01.014Z,100741.81
2022-08-05T05:35:34.335Z,100746.13
2022-08-05T05:38:05.657Z,100754.03
2022-08-05T05:40:35.470Z,100786.03
2022-08-05T05:43:02.803Z,100804.25
2022-08-05T05:45:29.171Z,100828.44
2022-08-05T05:48:06.000Z,100831.88
2022-08-05T05:50:34.324Z,100822.78
2022-08-05T05:53:20.838Z,100830.44
2022-08-05T05:55:52.045Z,100829.28
2022-08-05T05:58:31.792Z,100834.78
2022-08-05T06:01:04.948Z,100841.31
2022-08-05T06:04:01.038Z,100847.91
2022-08-05T06:06:28.079Z,100863.88
2022-08-05T06:08:57.674Z,100863.53
2022-08-05T06:11:24.050Z,100863.81
2022-08-05T06:13:55.333Z,100875.59
2022-08-05T06:16:30.287Z,100850.31
2022-08-05T06:19:00.098Z,100852.69
2022-08-05T06:21:36.116Z,100843.94
2022-08-05T06:24:03.710Z,100843.69
2022-08-05T06:26:33.794Z,100832.38
2022-08-05T06:29:03.276Z,100826.25
2022-08-05T06:31:32.773Z,100836.19
2022-08-05T06:34:07.716Z,100828.47
2022-08-05T06:36:37.428Z,100836.69
2022-08-05T06:39:21.793Z,100832.88
2022-08-05T06:41:49.359Z,100828.06
2022-08-05T06:44:15.830Z,100821.03
2022-08-05T06:46:44.162Z,100821.69
2022-08-05T06:49:10.531Z,100823.28
2022-08-05T06:51:40.688Z,100823.91
2022-08-05T06:54:07.314Z,100834.13
2022-08-05T06:56:35.244Z,100834.19
2022-08-05T06:59:02.327Z,100851.31
2022-08-05T07:01:32.746Z,100850.53
2022-08-05T07:03:59.741Z,100859.84
2022-08-05T07:06:27.734Z,100874.81
2022-08-05T07:08:55.181Z,100892.88
2022-08-05T07:11:22.251Z,100912.31
2022-08-05T07:14:07.929Z,100915.50
2022-08-05T07:18:01.835Z,100900.41
2022-08-05T07:22:29.189Z,100879.59
2022-08-05T07:24:57.311Z,100873.81
2022-08-05T07:27:27.390Z,100854.28
2022-08-05T07:30:27.478Z,100852.06
2022-08-05T07:32:53.452Z,100859.38
2022-08-05T07:36:03.256Z,100859.38
2022-08-05T07:38:06.277Z,100870.31
2022-08-05T07:40:38.896Z,100864.50
2022-08-05T07:43:20.083Z,100855.09
2022-08-05T07:45:58.063Z,100865.28
2022-08-05T07:48:36.589Z,100848.59
2022-08-05T07:51:23.873Z,100838.44
2022-08-05T07:53:57.415Z,100839.16
2022-08-05T07:57:00.355Z,100816.72
2022-08-05T07:59:10.711Z,100801.56
2022-08-05T08:01:41.550Z,100802.28
2022-08-05T08:04:23.625Z,100814.63
2022-08-05T08:07:05.458Z,100814.63
2022-08-05T08:09:33.648Z,100821.91
2022-08-05T08:12:05.177Z,100826.19
2022-08-05T08:14:37.753Z,100831.91
2022-08-05T08:17:10.653Z,100827.34
2022-08-05T08:20:21.241Z,100837.69
2022-08-05T08:22:28.679Z,100843.94
2022-08-05T08:24:55.054Z,100852.47
2022-08-05T08:27:35.738Z,100844.81
2022-08-05T08:30:29.475Z,100839.56
2022-08-05T08:33:02.738Z,100859.13
2022-08-05T08:35:35.081Z,100870.31
2022-08-05T08:38:07.494Z,100882.22
2022-08-05T08:40:34.582Z,100889.81
2022-08-05T08:45:16.364Z,100902.81
2022-08-05T08:45:49.515Z,100919.94
2022-08-05T08:48:41.419Z,100921.91
2022-08-05T08:51:07.746Z,100926.66
2022-08-05T08:53:49.937Z,100931.81
2022-08-05T08:56:17.191Z,100917.00
2022-08-05T08:58:47.971Z,100919.28
2022-08-05T09:01:16.442Z,100914.31
2022-08-05T09:03:45.240Z,100913.25
2022-08-05T09:06:15.765Z,100917.13
2022-08-05T09:08:44.934Z,100914.94
2022-08-05T09:11:13.826Z,100922.72
2022-08-05T09:14:09.311Z,100922.91
2022-08-05T09:16:27.329Z,100916.22
2022-08-05T09:18:55.485Z,100917.41
2022-08-05T09:22:22.258Z,100906.00
2022-08-05T09:24:10.170Z,100909.34
2022-08-05T09:26:36.843Z,100920.16
2022-08-05T09:29:04.767Z,100932.84
2022-08-05T09:32:40.965Z,100918.66
2022-08-05T09:34:17.613Z,100904.03
2022-08-05T09:36:45.728Z,100891.06
2022-08-05T09:39:22.174Z,100895.00
2022-08-05T09:41:58.672Z,100897.69
2022-08-05T09:44:35.415Z,100866.81
2022-08-05T09:47:06.781Z,100864.38
2022-08-05T09:50:01.752Z,100860.94
2022-08-05T09:52:35.034Z,100869.13
2022-08-05T09:55:57.213Z,100870.31
2022-08-05T09:57:59.792Z,100846.75
2022-08-05T10:00:26.792Z,100845.69
2022-08-05T10:02:58.589Z,100853.34
2022-08-05T10:05:26.664Z,100863.41
2022-08-05T10:08:11.187Z,100888.72
2022-08-05T10:10:48.323Z,100880.91
2022-08-05T10:13:45.779Z,100879.63
2022-08-05T10:16:34.176Z,100896.03
2022-08-05T10:19:09.513Z,100898.22
2022-08-05T10:21:40.146Z,100915.56
2022-08-05T10:24:10.720Z,100913.69
2022-08-05T10:26:37.573Z,100914.91
2022-08-05T10:29:19.185Z,100925.81
2022-08-05T10:33:01.487Z,100914.13
2022-08-05T10:34:36.963Z,100912.78
2022-08-05T10:37:07.344Z,100911.44
2022-08-05T10:40:03.928Z,100920.72
2022-08-05T10:42:33.789Z,100912.50
2022-08-05T10:45:00.891Z,100912.78
2022-08-05T10:47:31.309Z,100908.81
2022-08-05T10:50:20.754Z,100908.81
2022-08-05T10:52:59.863Z,100887.69
2022-08-05T10:55:26.222Z,100887.91
2022-08-05T10:58:12.011Z,100888.56
2022-08-05T11:00:45.695Z,100897.78
2022-08-05T11:03:23.410Z,100899.41
2022-08-05T11:06:03.816Z,100901.13
2022-08-05T11:08:39.207Z,100899.66
2022-08-05T11:11:24.660Z,100907.97
2022-08-05T11:13:59.646Z,100909.81
2022-08-05T11:16:34.057Z,100905.06
2022-08-05T11:20:17.325Z,100908.41
2022-08-05T11:22:30.140Z,100901.75
2022-08-05T11:26:02.920Z,100896.19
2022-08-05T11:28:11.479Z,100905.81
2022-08-05T11:31:01.362Z,100921.31
2022-08-05T11:33:46.026Z,100908.47
2022-08-05T11:36:14.839Z,100898.47
2022-08-05T11:38:46.032Z,100904.84
2022-08-05T11:41:54.420Z,100895.28
2022-08-05T11:44:21.511Z,100899.59
2022-08-05T11:47:11.810Z,100914.09
2022-08-05T11:49:42.779Z,100917.84
2022-08-05T11:52:11.372Z,100914.84
2022-08-05T11:54:40.361Z,100915.44
2022-08-05T11:57:39.428Z,100914.19
2022-08-05T11:59:54.750Z,100921.41
2022-08-05T12:02:30.402Z,100905.88
2022-08-05T12:04:59.988Z,100905.09
2022-08-05T12:08:09.137Z,100904.75
2022-08-05T12:10:13.003Z,100901.41
2022-08-05T12:12:39.587Z,100913.50
2022-08-05T12:15:33.283Z,100906.97
2022-08-05T12:18:10.659Z,100908.53
2022-08-05T12:20:38.614Z,100905.53
2022-08-05T12:23:09.383Z,100903.81
2022-08-05T12:25:56.750Z,100909.47
2022-08-05T12:28:31.039Z,100910.59
2022-08-05T12:30:57.816Z,100916.09
2022-08-05T12:33:36.989Z,100913.22
2022-08-05T12:36:07.967Z,100926.69
2022-08-05T12:38:36.336Z,100925.03
2022-08-05T12:41:03.078Z,100926.88
2022-08-05T12:43:32.283Z,100924.75
2022-08-05T12:45:58.788Z,100936.41
2022-08-05T12:48:32.222Z,100936.25
2022-08-05T12:52:10.192Z,100939.00
2022-08-05T12:53:59.339Z,100932.28
2022-08-05T12:56:34.931Z,100929.47
2022-08-05T12:59:14.104Z,100928.06
2022-08-05T13:02:07.118Z,100921.38
2022-08-05T13:04:34.939Z,100920.03
2022-08-05T13:07:16.136Z,100920.13
2022-08-05T13:09:50.850Z,100923.56
2022-08-05T13:12:23.586Z,100929.91
2022-08-05T13:15:06.689Z,100933.06
2022-08-05T13:17:41.345Z,100932.34
2022-08-05T13:20:24.656Z,100929.03
2022-08-05T13:22:52.672Z,100934.88
2022-08-05T13:25:21.940Z,100926.88
2022-08-05T13:27:50.288Z,100934.31
2022-08-05T13:30:34.286Z,100926.28
2022-08-05T13:33:03.239Z,100934.78
2022-08-05T13:35:42.479Z,100937.75
2022-08-05T13:38:28.369Z,100939.59
2022-08-05T13:41:00.579Z,100938.09
2022-08-05T13:43:44.094Z,100930.75
2022-08-05T13:46:13.453Z,100939.31
2022-08-05T13:48:58.234Z,100933.41
2022-08-05T13:51:27.933Z,100927.50
2022-08-05T13:53:58.042Z,100928.44
2022-08-05T13:56:25.459Z,100930.72
2022-08-05T13:58:53.465Z,100921.78
2022-08-05T14:01:25.854Z,100923.44
2022-08-05T14:04:21.673Z,100917.75
2022-08-05T14:06:58.754Z,100940.63
2022-08-05T14:09:46.079Z,100928.34
2022-08-05T14:12:18.138Z,100926.06
2022-08-05T14:14:58.708Z,100930.69
2022-08-05T14:17:26.495Z,100938.09
2022-08-05T14:19:56.895Z,100947.88
2022-08-05T14:22:30.373Z,100953.75
2022-08-05T14:25:00.746Z,100946.41
2022-08-05T14:27:28.378Z,100964.72
2022-08-05T14:29:54.847Z,100971.44
2022-08-05T14:32:26.889Z,100957.19
2022-08-05T14:34:54.639Z,100966.44
2022-08-05T14:37:23.243Z,100975.09
2022-08-05T14:40:09.833Z,100979.75
2022-08-05T14:42:41.234Z,100980.47
2022-08-05T14:45:08.844Z,100979.25
2022-08-05T14:48:04.007Z,100968.47
2022-08-05T14:50:21.739Z,100961.28
2022-08-05T14:52:56.885Z,100961.75
2022-08-05T14:55:25.293Z,100966.16
2022-08-05T14:57:54.015Z,100960.19
2022-08-05T15:00:22.407Z,100963.00
2022-08-05T15:02:54.727Z,100962.13
2022-08-05T15:05:21.176Z,100960.06
2022-08-05T15:08:05.698Z,100967.16
2022-08-05T15:10:33.870Z,100964.53
2022-08-05T15:13:03.722Z,100968.13
2022-08-05T15:15:55.661Z,100976.84
2022-08-05T15:18:17.449Z,100981.34
2022-08-05T15:20:43.870Z,101003.41
2022-08-05T15:23:12.913Z,101005.59
2022-08-05T15:25:52.839Z,101004.69
2022-08-05T15:28:27.602Z,100990.25
2022-08-05T15:30:54.247Z,100988.75
2022-08-05T15:34:05.213Z,100990.84
2022-08-05T15:36:09.026Z,100996.56
2022-08-05T15:38:44.539Z,101000.47
2022-08-05T15:41:23.005Z,101009.06
2022-08-05T15:43:50.993Z,100999.16
2022-08-05T15:46:18.950Z,101012.50
2022-08-05T15:48:54.351Z,101016.91
2022-08-05T15:52:04.199Z,101023.34
2022-08-05T15:54:15.278Z,101023.19
2022-08-05T15:56:42.193Z,101033.28
2022-08-05T15:59:09.818Z,101031.06
2022-08-05T16:01:52.246Z,101032.59
2022-08-05T16:04:19.735Z,101031.22
2022-08-05T16:06:46.083Z,101031.25
2022-08-05T16:09:12.445Z,101044.13
2022-08-05T16:11:42.554Z,101050.41
2022-08-05T16:14:09.568Z,101070.38
2022-08-05T16:16:36.202Z,101064.00
2022-08-05T16:19:03.333Z,101073.75
2022-08-05T16:21:58.712Z,101093.56
2022-08-05T16:24:41.050Z,101081.88
2022-08-05T16:27:03.525Z,101079.84
2022-08-05T16:29:36.980Z,101090.66
2022-08-05T16:32:04.126Z,101101.28
2022-08-05T16:34:31.042Z,101112.44
2022-08-05T16:36:57.402Z,101120.16
2022-08-05T16:40:06.266Z,101133.19
2022-08-05T16:42:13.652Z,101139.47
2022-08-05T16:44:42.284Z,101142.97
2022-08-05T16:47:29.106Z,101159.88
2022-08-05T16:49:57.133Z,101163.09
2022-08-05T16:52:23.822Z,101155.88
2022-08-05T16:54:59.044Z,101169.50
2022-08-05T16:57:50.447Z,101164.84
2022-08-05T17:00:12.451Z,101170.53
2022-08-05T17:02:40.576Z,101185.00
2022-08-05T17:05:07.214Z,101188.47
2022-08-05T17:07:43.764Z,101199.00
2022-08-05T17:10:19.924Z,101219.19
2022-08-05T17:12:51.034Z,101224.66
2022-08-05T17:15:19.642Z,101216.66
2022-08-05T17:17:48.889Z,101206.41
2022-08-05T17:20:21.263Z,101224.28
2022-08-05T17:22:47.620Z,101218.06
2022-08-05T17:25:33.810Z,101224.94
2022-08-05T17:28:06.691Z,101240.38
2022-08-05T17:30:42.639Z,101234.44
2022-08-05T17:33:18.607Z,101238.50
2022-08-05T17:36:08.722Z,101229.31
2022-08-05T17:38:32.687Z,101225.84
2022-08-05T17:40:59.447Z,101231.06
2022-08-05T17:43:46.480Z,101224.88
2022-08-05T17:46:12.557Z,101242.84
2022-08-05T17:48:39.990Z,101246.34
2022-08-05T17:51:09.669Z,101247.31
2022-08-05T17:53:36.083Z,101261.50
2022-08-05T17:56:04.496Z,101262.59
2022-08-05T17:58:32.286Z,101266.94
2022-08-05T18:00:59.198Z,101258.06
2022-08-05T18:03:58.528Z,101263.69
2022-08-05T18:06:15.165Z,101270.22
2022-08-05T18:08:44.528Z,101275.19
2022-08-05T18:11:11.818Z,101270.94
2022-08-05T18:13:51.271Z,101286.53
2022-08-05T18:16:20.235Z,101281.66
2022-08-05T18:18:47.817Z,101281.34
2022-08-05T18:21:19.575Z,101294.09
2022-08-05T18:23:47.640Z,101298.84
2022-08-05T18:26:14.593Z,101309.53
2022-08-05T18:28:44.541Z,101309.41
2022-08-05T18:31:12.973Z,101305.47
2022-08-05T18:33:47.221Z,101299.34
2022-08-05T18:36:16.177Z,101305.03
2022-08-05T18:38:42.555Z,101311.75
2022-08-05T18:41:56.093Z,101313.94
2022-08-05T18:43:55.350Z,101323.69
2022-08-05T18:46:22.651Z,101335.81
2022-08-05T18:48:53.681Z,101338.69
2022-08-05T18:52:05.361Z,101334.53
2022-08-05T18:54:25.749Z,101334.53
2022-08-05T18:56:54.911Z,101346.63
2022-08-05T18:59:42.840Z,101350.19
2022-08-05T19:02:11.180Z,101350.75
2022-08-05T19:05:02.210Z,101359.31
2022-08-05T19:07:45.092Z,101352.81
2022-08-05T19:10:12.133Z,101362.75
2022-08-05T19:12:38.807Z,101368.44
2022-08-05T19:15:05.369Z,101368.44
2022-08-05T19:17:59.172Z,101369.66
2022-08-05T19:20:25.370Z,101379.13
2022-08-05T19:22:51.846Z,101380.19
2022-08-05T19:25:29.585Z,101383.00
2022-08-05T19:27:57.106Z,101384.13
2022-08-05T19:30:23.727Z,101381.69
2022-08-05T19:32:50.274Z,101384.06
2022-08-05T19:35:16.635Z,101390.31
2022-08-05T19:38:04.712Z,101392.53
2022-08-05T19:40:29.367Z,101398.97
2022-08-05T19:43:04.902Z,101399.88
2022-08-05T19:45:33.308Z,101400.03
2022-08-05T19:48:03.593Z,101409.53
2022-08-05T19:50:31.779Z,101412.72
2022-08-05T19:52:58.417Z,101416.06
2022-08-05T19:56:15.291Z,101418.53
2022-08-05T19:58:29.195Z,101420.66
2022-08-05T20:00:56.405Z,101420.78
2022-08-05T20:03:24.301Z,101422.81
2022-08-05T20:05:56.389Z,101424.22
2022-08-05T20:08:24.447Z,101431.44
2022-08-05T20:10:51.206Z,101430.94
2022-08-05T20:13:17.773Z,101431.22
2022-08-05T20:15:52.204Z,101441.31
2022-08-05T20:18:33.228Z,101442.03
2022-08-05T20:21:01.569Z,101449.56
2022-08-05T20:23:40.526Z,101448.44
2022-08-05T20:26:18.880Z,101438.50
2022-08-05T20:28:46.014Z,101441.91
2022-08-05T20:31:13.291Z,101454.53
2022-08-05T20:33:42.363Z,101463.22
2022-08-05T20:36:10.099Z,101465.97
2022-08-05T20:38:37.567Z,101478.00
2022-08-05T20:41:08.231Z,101480.47
2022-08-05T20:43:58.689Z,101484.97
2022-08-05T20:46:24.958Z,101488.28
2022-08-05T20:48:51.903Z,101499.56
2022-08-05T20:51:18.323Z,101499.56
2022-08-05T20:53:56.360Z,101497.47
2022-08-05T20:56:27.671Z,101505.91
2022-08-05T20:58:56.520Z,101518.13
2022-08-05T21:01:38.150Z,101515.47
2022-08-05T21:04:07.270Z,101513.94
2022-08-05T21:06:36.953Z,101512.94
2022-08-05T21:09:04.639Z,101524.31
2022-08-05T21:12:09.513Z,101518.44
2022-08-05T21:14:18.221Z,101524.44
2022-08-05T21:16:45.382Z,101538.78
2022-08-05T21:19:11.932Z,101532.41
2022-08-05T21:21:44.566Z,101548.31
2022-08-05T21:24:17.087Z,101538.75
2022-08-05T21:26:57.974Z,101534.63
2022-08-05T21:29:26.234Z,101539.06
2022-08-05T21:31:52.866Z,101546.28
2022-08-05T21:34:20.388Z,101544.19
2022-08-05T21:36:49.040Z,101549.50
2022-08-05T21:39:17.009Z,101554.41
2022-08-05T21:42:02.007Z,101553.78
2022-08-05T21:44:29.284Z,101549.28
2022-08-05T21:46:58.215Z,101554.59
2022-08-05T21:49:58.883Z,101548.59
2022-08-05T21:52:16.353Z,101550.84
2022-08-05T21:54:55.068Z,101554.59
2022-08-05T21:57:31.201Z,101564.97
2022-08-05T22:00:10.666Z,101563.38
2022-08-05T22:02:41.676Z,101569.25
2022-08-05T22:05:09.288Z,101570.88
2022-08-05T22:07:39.956Z,101564.34
2022-08-05T22:10:26.651Z,101563.75
2022-08-05T22:12:53.991Z,101554.84
2022-08-05T22:16:04.631Z,101563.34
2022-08-05T22:18:06.777Z,101572.53
2022-08-05T22:20:39.709Z,101580.19
2022-08-05T22:23:24.677Z,101578.53
2022-08-05T22:26:11.829Z,101592.75
2022-08-05T22:28:41.369Z,101585.31
2022-08-05T22:31:07.734Z,101587.03
2022-08-05T22:33:57.424Z,101587.44
2022-08-05T22:36:23.761Z,101593.41
2022-08-05T22:38:50.635Z,101593.06
2022-08-05T22:42:05.671Z,101596.53
2022-08-05T22:44:04.271Z,101605.22
2022-08-05T22:46:30.755Z,101604.63
2022-08-05T22:48:58.859Z,101597.28
2022-08-05T22:52:02.551Z,101601.00
2022-08-05T22:54:11.558Z,101603.06
2022-08-05T22:56:39.967Z,101606.44
2022-08-05T22:59:46.150Z,101615.88
2022-08-05T23:02:05.489Z,101621.47
2022-08-05T23:04:33.790Z,101620.16
2022-08-05T23:07:00.155Z,101614.22
2022-08-05T23:09:27.861Z,101625.00
2022-08-05T23:12:12.881Z,101619.72
2022-08-05T23:14:39.244Z,101628.13
2022-08-05T23:17:34.871Z,101621.50
2022-08-05T23:20:04.797Z,101623.47
2022-08-05T23:22:31.870Z,101619.06
2022-08-05T23:24:59.814Z,101631.94
2022-08-05T23:27:28.865Z,101624.75
2022-08-05T23:29:57.923Z,101612.06
2022-08-05T23:32:24.711Z,101621.50
2022-08-05T23:34:53.495Z,101622.91
2022-08-05T23:37:19.879Z,101635.84
2022-08-05T23:39:53.521Z,101634.38
2022-08-05T23:42:23.446Z,101637.72
2022-08-05T23:44:55.834Z,101644.28
2022-08-05T23:47:22.201Z,101656.56
2022-08-05T23:49:51.981Z,101652.84
2022-08-05T23:52:30.580Z,101653.59
2022-08-05T23:55:02.461Z,101658.63
2022-08-05T23:57:31.904Z,101648.19
